Harp Township, Illinois
Current Conditions -  °F | °C
As of 3:35 AM on Friday 28 Nov 2014 (Local Time) from KAAA Reporting Station
Broken Clouds Broken Clouds  
Wind Chill:   Ceiling: 8000
Heat Index: 19°   Visibility: 10mi
Dew Point: 13°   Wind: 7mph
Humidity: 79%   Direction: 170°S
Pressure: 30.39"   Gusts: NA
Location:  40.143°N, 88.9637°W
Report Text: KAAA 280935Z AUTO 17006KT 10SM BKN080 M07/M11 A3039 RMK AO2 T10751106
Loading
Personal Weather Stations






























Interactive Weather Map New forecast layout! Learn more

10-Day Weather Forecast

Advertisements
Track Severe Weather on mobile